Time;durP1;ratioP1;P1;durP2;ratioP2;P2;SDS_P1;SDS_P2;PMS_P1;PMS_P2;Temp;Humidity;BMP_temperature;BMP_pressure;BME280_temperature;BME280_humidity;BME280_pressure;Samples;Min_cycle;Max_cycle;Signal;HPM_P1;HPM_P2
2021/07/04 00:02:41;;;;;;;7.32;3.63;;;;;;;24.34;73.78;100199.91;5054015;28;20044;-83
2021/07/04 00:05:47;;;;;;;5.60;3.45;;;;;;;24.35;73.53;100193.34;5054674;28;20063;-85
2021/07/04 00:08:51;;;;;;;5.25;3.50;;;;;;;24.33;73.64;100192.72;5052044;28;20075;-83
2021/07/04 00:11:56;;;;;;;5.32;3.53;;;;;;;24.33;72.95;100185.34;5053294;28;20404;-81
2021/07/04 00:15:00;;;;;;;5.13;4.03;;;;;;;24.23;74.05;100182.28;5053603;28;20060;-84
2021/07/04 00:18:05;;;;;;;5.03;3.95;;;;;;;24.09;73.91;100179.91;5053177;28;20044;-83
2021/07/04 00:21:10;;;;;;;5.75;4.20;;;;;;;23.91;75.18;100178.78;5052366;28;20048;-84
2021/07/04 00:24:14;;;;;;;5.68;4.55;;;;;;;23.91;75.55;100178.78;5051916;28;20048;-85
2021/07/04 00:27:19;;;;;;;5.03;3.70;;;;;;;24.00;74.94;100171.09;5053528;28;20052;-85
2021/07/04 00:30:29;;;;;;;5.30;4.80;;;;;;;23.99;74.96;100169.44;5051756;28;20056;-81
2021/07/04 00:33:33;;;;;;;7.03;4.70;;;;;;;23.82;75.06;100168.31;5052323;28;20056;-84
2021/07/04 00:36:39;;;;;;;5.57;4.25;;;;;;;23.73;75.12;100164.16;5052954;28;20060;-84
2021/07/04 00:39:43;;;;;;;6.60;4.40;;;;;;;23.72;75.21;100160.63;5053677;28;21219;-84
2021/07/04 00:42:48;;;;;;;5.53;4.18;;;;;;;23.75;75.29;100160.16;5053133;28;20435;-85
2021/07/04 00:45:52;;;;;;;5.10;3.90;;;;;;;23.79;75.16;100160.53;5051196;28;20056;-82
2021/07/04 00:49:01;;;;;;;4.65;3.40;;;;;;;23.81;74.58;100159.25;5052791;28;20072;-84
2021/07/04 00:52:07;;;;;;;4.97;3.97;;;;;;;23.84;74.70;100160.72;5053180;28;20511;-85
2021/07/04 00:55:15;;;;;;;6.15;5.00;;;;;;;23.72;75.87;100157.88;5051886;28;20052;-85
2021/07/04 00:58:22;;;;;;;8.05;4.40;;;;;;;23.63;76.14;100141.91;5053144;28;20048;-85
2021/07/04 01:01:30;;;;;;;5.55;4.80;;;;;;;23.63;76.26;100150.13;5050411;28;20040;-82
2021/07/04 01:04:35;;;;;;;5.30;4.72;;;;;;;23.60;76.14;100147.88;5051083;28;20056;-81
2021/07/04 01:07:41;;;;;;;5.95;4.40;;;;;;;23.61;76.42;100142.16;5051848;28;20061;-83
2021/07/04 01:10:46;;;;;;;8.20;4.72;;;;;;;23.62;76.28;100141.09;5052668;28;20055;-85
2021/07/04 01:13:54;;;;;;;5.18;4.53;;;;;;;23.60;76.04;100139.66;5051382;28;20518;-85
2021/07/04 01:16:58;;;;;;;5.68;4.50;;;;;;;23.57;76.03;100138.19;5052375;28;20056;-85
2021/07/04 01:20:07;;;;;;;7.93;5.10;;;;;;;23.50;76.72;100139.31;5052883;28;20400;-85
2021/07/04 01:23:14;;;;;;;7.93;5.10;;;;;;;23.52;76.51;100132.53;5051260;28;20056;-83
2021/07/04 01:26:21;;;;;;;6.15;4.80;;;;;;;23.51;77.06;100130.00;5052597;28;20514;-83
2021/07/04 01:29:26;;;;;;;5.50;5.00;;;;;;;23.47;77.36;100128.78;5052869;28;20044;-78
2021/07/04 01:32:30;;;;;;;5.10;4.28;;;;;;;23.49;77.08;100135.72;5050088;28;20052;-82
2021/07/04 01:35:47;;;;;;;5.38;4.72;;;;;;;23.44;77.12;100129.22;5052524;28;20044;-83
2021/07/04 01:38:52;;;;;;;7.22;5.18;;;;;;;23.43;77.21;100131.13;5050843;28;20048;-83
2021/07/04 01:41:57;;;;;;;7.15;5.50;;;;;;;23.39;77.24;100129.91;5050926;28;20052;-82
2021/07/04 01:45:05;;;;;;;7.45;6.05;;;;;;;23.18;78.17;100131.06;5051658;28;20400;-84
2021/07/04 01:48:09;;;;;;;7.20;6.15;;;;;;;23.13;78.34;100114.47;5053020;28;20036;-82
2021/07/04 01:51:19;;;;;;;7.72;5.90;;;;;;;23.17;78.43;100125.81;5040731;28;20047;-85
2021/07/04 01:54:24;;;;;;;8.75;6.20;;;;;;;23.17;78.52;100128.56;5052204;28;20051;-82
2021/07/04 01:57:29;;;;;;;6.60;5.90;;;;;;;23.19;78.90;100120.97;5052404;28;20036;-78
2021/07/04 02:00:43;;;;;;;6.05;5.40;;;;;;;23.28;78.29;100127.88;5051853;28;20052;-83
2021/07/04 02:03:48;;;;;;;6.63;6.03;;;;;;;23.25;78.56;100120.94;5051872;28;20044;-85
2021/07/04 02:06:55;;;;;;;7.82;6.90;;;;;;;23.22;79.06;100124.09;5050197;28;20052;-85
2021/07/04 02:10:03;;;;;;;8.35;7.55;;;;;;;23.25;78.77;100125.56;5051151;28;20081;-81
2021/07/04 02:13:16;;;;;;;8.50;7.25;;;;;;;23.29;78.94;100121.31;5038943;28;20040;-82
2021/07/04 02:16:27;;;;;;;7.80;7.10;;;;;;;23.29;78.85;100124.88;5052506;28;20056;-85
2021/07/04 02:19:52;;;;;;;8.40;7.60;;;;;;;23.28;79.60;100119.66;5052016;28;20048;-80
2021/07/04 02:23:26;;;;;;;8.30;7.50;;;;;;;23.24;79.63;100115.66;5055663;28;20388;-83
2021/07/04 02:26:44;;;;;;;9.27;6.75;;;;;;;23.21;79.34;100114.19;5055146;28;20064;-82
2021/07/04 02:30:00;;;;;;;9.00;8.20;;;;;;;23.23;79.22;100114.00;5054839;28;20056;-80
2021/07/04 02:33:10;;;;;;;10.13;9.07;;;;;;;23.11;79.28;100113.00;5055545;28;20400;-85
2021/07/04 02:36:16;;;;;;;9.73;8.80;;;;;;;23.00;79.38;100113.72;5054177;28;20395;-85
2021/07/04 02:39:21;;;;;;;9.88;8.95;;;;;;;22.89;79.73;100111.69;5054858;28;20052;-82
2021/07/04 02:42:28;;;;;;;9.10;8.15;;;;;;;22.88;79.89;100112.75;5055478;28;20048;-85
2021/07/04 02:45:34;;;;;;;8.02;6.47;;;;;;;22.98;79.15;100116.69;5054205;28;20060;-85
2021/07/04 02:48:46;;;;;;;8.35;7.55;;;;;;;22.82;79.01;100109.00;5055409;28;20064;-85
2021/07/04 02:51:50;;;;;;;9.32;7.50;;;;;;;22.85;79.45;100115.94;5044292;28;20063;-85
2021/07/04 02:54:55;;;;;;;7.80;6.78;;;;;;;22.89;78.93;100108.94;5053420;28;20051;-85
2021/07/04 02:58:07;;;;;;;8.07;7.10;;;;;;;22.91;79.34;100126.81;5054984;28;20048;-82
2021/07/04 03:01:13;;;;;;;7.82;7.03;;;;;;;22.82;79.39;100122.69;5052726;28;20043;-84
2021/07/04 03:04:18;;;;;;;8.48;6.88;;;;;;;22.85;79.34;100124.13;5053752;28;20048;-85
2021/07/04 03:07:22;;;;;;;8.43;7.50;;;;;;;22.83;79.71;100132.59;5055108;28;20059;-83
2021/07/04 03:10:28;;;;;;;8.55;7.47;;;;;;;22.82;79.53;100136.38;5055625;28;20048;-84
2021/07/04 03:13:33;;;;;;;7.85;7.05;;;;;;;22.83;79.44;100127.09;5053698;28;20040;-85
2021/07/04 03:16:40;;;;;;;9.38;7.32;;;;;;;22.86;79.23;100142.25;5054767;28;20048;-85
2021/07/04 03:19:45;;;;;;;9.38;6.93;;;;;;;22.89;78.96;100133.56;5053675;28;20396;-84
2021/07/04 03:22:50;;;;;;;7.55;6.82;;;;;;;22.93;78.62;100129.38;5055527;28;20523;-85
2021/07/04 03:25:56;;;;;;;8.45;7.50;;;;;;;22.85;79.12;100121.41;5052876;28;20052;-85
2021/07/04 03:29:05;;;;;;;10.20;6.70;;;;;;;22.86;78.72;100123.91;5054119;28;20426;-78
2021/07/04 03:32:19;;;;;;;9.18;7.05;;;;;;;22.83;78.93;100123.53;5042792;28;20043;-86
2021/07/04 03:35:24;;;;;;;8.98;7.38;;;;;;;22.85;78.75;100137.81;5054876;28;20392;-85
2021/07/04 03:38:33;;;;;;;9.25;6.95;;;;;;;22.95;78.56;100160.94;5052157;28;20135;-83
2021/07/04 03:41:37;;;;;;;7.72;6.30;;;;;;;23.05;77.82;100163.19;5053893;28;20060;-85
2021/07/04 03:44:43;;;;;;;6.75;6.05;;;;;;;23.07;77.28;100169.28;5053669;28;20399;-82
2021/07/04 03:47:50;;;;;;;8.00;6.05;;;;;;;23.07;77.53;100169.28;5054652;28;20040;-85
2021/07/04 03:51:01;;;;;;;7.82;6.05;;;;;;;23.03;77.35;100160.69;5043090;28;20072;-85
2021/07/04 03:54:07;;;;;;;8.90;6.38;;;;;;;23.06;76.99;100153.94;5053733;28;20044;-79
2021/07/04 03:57:24;;;;;;;6.60;5.63;;;;;;;23.15;76.70;100145.22;5051937;28;20263;-79
2021/07/04 04:00:58;;;;;;;7.53;6.25;;;;;;;23.27;75.83;100142.59;5059859;28;20048;-80
2021/07/04 04:04:10;;;;;;;7.80;5.15;;;;;;;23.33;75.62;100138.16;5055051;28;20099;-82
2021/07/04 04:07:16;;;;;;;9.80;6.80;;;;;;;23.29;75.45;100135.00;5054505;28;20044;-80
2021/07/04 04:10:21;;;;;;;8.30;6.85;;;;;;;23.10;76.56;100130.50;5052198;28;20404;-85
2021/07/04 04:13:28;;;;;;;8.65;7.43;;;;;;;23.01;77.00;100131.84;5041927;28;20055;-81
2021/07/04 04:16:41;;;;;;;6.80;5.78;;;;;;;23.14;76.49;100120.78;5052786;28;20048;-85
2021/07/04 04:19:45;;;;;;;12.93;7.53;;;;;;;23.17;76.17;100120.34;5053243;28;20060;-85
2021/07/04 04:22:51;;;;;;;10.40;7.65;;;;;;;23.13;75.75;100125.41;5051308;28;20048;-86
2021/07/04 04:25:56;;;;;;;10.60;7.90;;;;;;;23.00;76.09;100109.09;5048539;28;20040;-83
2021/07/04 04:29:01;;;;;;;10.20;7.35;;;;;;;22.80;76.62;100124.81;5052527;28;20080;-79
2021/07/04 04:32:06;;;;;;;10.13;6.47;;;;;;;22.70;77.37;100129.06;5053900;28;20048;-83
2021/07/04 04:35:10;;;;;;;11.05;6.20;;;;;;;22.67;77.47;100136.66;5054112;28;20060;-84
2021/07/04 04:38:14;;;;;;;9.23;6.78;;;;;;;22.62;77.29;100136.47;5051546;28;20048;-83
2021/07/04 04:41:19;;;;;;;11.35;6.13;;;;;;;22.87;76.73;100124.75;5051841;28;20048;-79
2021/07/04 04:44:23;;;;;;;8.60;5.55;;;;;;;23.00;75.78;100122.78;5053432;28;20048;-86
2021/07/04 04:47:28;;;;;;;7.63;6.07;;;;;;;23.12;75.34;100125.66;5053931;28;20043;-85
2021/07/04 04:50:33;;;;;;;10.15;6.00;;;;;;;23.51;73.72;100127.25;5050943;28;20056;-85
2021/07/04 04:53:37;;;;;;;7.68;5.75;;;;;;;24.24;71.11;100129.09;5051191;28;20044;-86
2021/07/04 04:56:41;;;;;;;6.43;4.97;;;;;;;24.90;68.00;100128.28;5052023;28;20392;-85
2021/07/04 04:59:45;;;;;;;7.00;4.88;;;;;;;25.42;65.75;100119.22;5040883;28;20515;-83
2021/07/04 05:02:50;;;;;;;11.75;4.78;;;;;;;26.13;63.64;100127.31;5051796;28;20068;-85
2021/07/04 05:05:58;;;;;;;6.25;4.78;;;;;;;26.46;61.94;100135.75;5049923;28;20511;-80
2021/07/04 05:09:04;;;;;;;5.35;4.60;;;;;;;26.66;61.36;100129.84;5052737;28;20075;-82
2021/07/04 05:12:08;;;;;;;8.30;4.35;;;;;;;26.70;60.82;100119.16;5053378;28;20507;-86
2021/07/04 05:15:13;;;;;;;9.27;4.15;;;;;;;27.33;59.40;100124.50;5051022;28;20055;-86
2021/07/04 05:18:17;;;;;;;6.90;4.15;;;;;;;27.65;58.49;100134.72;5051301;28;20056;-85
2021/07/04 05:21:22;;;;;;;5.97;4.30;;;;;;;28.17;56.16;100129.75;5052663;28;20052;-86
2021/07/04 05:24:27;;;;;;;6.68;4.18;;;;;;;28.85;54.89;100115.47;5052181;28;20044;-85
2021/07/04 05:27:31;;;;;;;7.82;4.63;;;;;;;29.68;52.77;100118.75;5053495;28;20048;-86
2021/07/04 05:30:36;;;;;;;8.45;5.03;;;;;;;30.27;51.27;100121.09;5051338;28;20047;-84
2021/07/04 05:33:40;;;;;;;7.88;3.63;;;;;;;30.42;49.74;100122.34;5051824;28;20044;-85
2021/07/04 05:36:47;;;;;;;6.20;4.38;;;;;;;30.94;49.43;100123.06;5052295;28;20498;-85
2021/07/04 05:39:51;;;;;;;6.85;3.40;;;;;;;32.11;46.60;100131.22;5053493;28;20103;-81
2021/07/04 05:42:56;;;;;;;4.82;3.88;;;;;;;32.75;44.57;100139.63;5050589;28;20048;-81
2021/07/04 05:46:01;;;;;;;4.10;3.30;;;;;;;34.21;42.18;100140.53;5052036;28;20068;-84
2021/07/04 05:49:05;;;;;;;4.55;3.15;;;;;;;35.43;39.33;100131.41;5051597;28;20060;-84
2021/07/04 05:52:10;;;;;;;5.68;3.42;;;;;;;35.73;38.69;100133.72;5051481;28;20408;-84
2021/07/04 05:55:14;;;;;;;7.43;3.50;;;;;;;35.99;37.42;100145.28;5050613;28;20154;-83
2021/07/04 05:58:19;;;;;;;4.97;3.28;;;;;;;36.59;36.18;100146.13;5051175;28;20052;-82
2021/07/04 06:01:23;;;;;;;6.18;3.92;;;;;;;37.17;35.44;100145.13;5051676;28;20056;-85
2021/07/04 06:04:27;;;;;;;5.35;3.63;;;;;;;37.17;36.06;100150.72;5052036;28;20048;-86
2021/07/04 06:07:32;;;;;;;6.38;3.47;;;;;;;36.93;36.33;100152.13;5053476;28;20048;-85
2021/07/04 06:10:37;;;;;;;4.40;3.15;;;;;;;37.06;35.96;100156.88;5053737;28;20056;-83
2021/07/04 06:13:42;;;;;;;5.47;3.10;;;;;;;37.70;35.89;100159.25;5053724;28;20064;-82
2021/07/04 06:16:46;;;;;;;6.40;3.60;;;;;;;38.24;34.94;100154.53;5053837;28;20060;-81
2021/07/04 06:19:51;;;;;;;6.28;3.63;;;;;;;36.97;35.87;100155.94;5053300;28;20056;-78
2021/07/04 06:22:55;;;;;;;8.38;3.88;;;;;;;35.81;37.74;100156.22;5053082;28;20399;-86
2021/07/04 06:25:59;;;;;;;6.97;4.07;;;;;;;34.69;39.36;100162.88;5052258;28;20056;-87
2021/07/04 06:29:04;;;;;;;6.07;3.92;;;;;;;34.16;40.87;100168.44;5053407;28;20052;-87
2021/07/04 06:32:09;;;;;;;6.07;3.70;;;;;;;34.56;40.08;100167.22;5052478;28;20511;-81
2021/07/04 06:35:17;;;;;;;13.40;12.00;;;;;;;34.51;40.42;100172.81;5052998;28;20056;-83
2021/07/04 06:38:22;;;;;;;8.50;7.60;;;;;;;33.44;41.81;100172.06;5053978;28;20049;-86
2021/07/04 06:41:26;;;;;;;6.13;4.32;;;;;;;32.03;45.43;100175.38;5053468;28;20380;-83
2021/07/04 06:44:31;;;;;;;4.75;4.20;;;;;;;34.11;41.91;100162.94;5054510;28;20048;-86
2021/07/04 06:47:17;;;;;;;7.38;4.03;;;;;;;36.60;36.63;100159.78;5052472;28;20423;-85
2021/07/04 06:50:22;;;;;;;6.93;3.72;;;;;;;37.34;35.19;100166.84;5052958;28;20522;-87
2021/07/04 06:53:26;;;;;;;6.00;3.80;;;;;;;35.44;38.79;100174.94;5053005;28;20495;-86
2021/07/04 06:56:30;;;;;;;7.10;4.60;;;;;;;33.49;42.33;100174.00;5049918;28;20060;-86
2021/07/04 06:59:34;;;;;;;5.60;4.13;;;;;;;33.31;42.86;100178.28;5050644;28;20079;-87
2021/07/04 07:02:39;;;;;;;7.65;4.55;;;;;;;32.78;44.37;100183.56;5038410;28;20044;-85
2021/07/04 07:05:44;;;;;;;7.47;5.07;;;;;;;32.52;45.41;100186.69;5050893;28;20053;-87
2021/07/04 07:08:48;;;;;;;6.80;5.30;;;;;;;32.00;46.51;100189.81;5053517;28;20056;-86
2021/07/04 07:11:53;;;;;;;6.50;5.00;;;;;;;32.08;46.27;100175.38;5054692;28;20055;-85
2021/07/04 07:14:57;;;;;;;7.88;4.72;;;;;;;32.77;45.05;100162.44;5055485;28;20067;-85
2021/07/04 07:18:02;;;;;;;7.35;4.88;;;;;;;33.47;43.37;100162.31;5056821;28;20052;-85
2021/07/04 07:21:07;;;;;;;6.57;4.00;;;;;;;33.47;43.09;100160.38;5056778;28;20048;-84
2021/07/04 07:24:11;;;;;;;6.35;4.10;;;;;;;35.03;40.26;100149.56;5055679;28;20060;-85
2021/07/04 07:27:23;;;;;;;6.20;4.47;;;;;;;35.65;39.35;100137.22;5056764;28;20052;-83
2021/07/04 07:30:27;;;;;;;7.57;4.78;;;;;;;35.29;39.39;100132.19;5056592;28;20048;-84
2021/07/04 07:33:32;;;;;;;7.75;5.07;;;;;;;35.18;39.57;100130.66;5056455;28;20384;-86
2021/07/04 07:36:38;;;;;;;8.35;4.70;;;;;;;36.39;37.34;100130.56;5044277;28;20388;-84
2021/07/04 07:39:43;;;;;;;4.82;4.03;;;;;;;35.07;39.61;100143.13;5056117;28;20068;-86
2021/07/04 07:42:47;;;;;;;7.22;4.78;;;;;;;33.25;43.15;100140.50;5055659;28;20055;-83
2021/07/04 07:45:52;;;;;;;6.70;5.20;;;;;;;32.95;44.48;100144.25;5055838;28;20079;-85
2021/07/04 07:48:56;;;;;;;6.30;4.65;;;;;;;31.81;46.52;100142.34;5056098;28;20044;-85
2021/07/04 07:52:15;;;;;;;6.70;5.03;;;;;;;31.29;47.97;100138.97;5056056;28;20044;-83
2021/07/04 07:55:20;;;;;;;7.13;4.82;;;;;;;31.11;49.45;100139.50;5054911;28;20048;-84
2021/07/04 07:58:25;;;;;;;10.02;4.68;;;;;;;31.00;49.59;100157.22;5055646;28;20048;-82
2021/07/04 08:01:34;;;;;;;8.05;5.38;;;;;;;30.84;50.10;100150.75;5054865;28;20384;-84
2021/07/04 08:04:45;;;;;;;7.53;4.78;;;;;;;31.06;49.54;100128.41;5055025;28;20495;-84
2021/07/04 08:07:50;;;;;;;8.82;6.70;;;;;;;30.61;50.80;100132.66;5055609;28;20047;-86
2021/07/04 08:10:57;;;;;;;8.55;5.60;;;;;;;30.17;52.77;100136.84;5043470;28;20056;-85
2021/07/04 08:14:02;;;;;;;7.13;5.00;;;;;;;30.02;52.42;100123.72;5055703;28;20048;-85
2021/07/04 08:17:06;;;;;;;7.57;4.10;;;;;;;29.42;53.13;100121.31;5054525;28;20059;-85
2021/07/04 08:20:11;;;;;;;6.53;4.80;;;;;;;29.53;53.85;100113.91;5055604;28;20385;-84
2021/07/04 08:23:17;;;;;;;8.73;6.88;;;;;;;29.40;55.02;100114.38;5055637;28;20051;-85
2021/07/04 08:26:21;;;;;;;9.15;6.78;;;;;;;29.96;53.07;100108.19;5055458;28;20052;-85
2021/07/04 08:29:25;;;;;;;9.55;7.60;;;;;;;29.38;55.06;100117.38;5055380;28;20388;-85
2021/07/04 08:32:29;;;;;;;9.88;7.03;;;;;;;29.55;54.42;100120.03;5055053;28;20052;-84
2021/07/04 08:35:36;;;;;;;13.57;7.13;;;;;;;29.43;54.50;100127.69;5055091;28;20056;-82
2021/07/04 08:38:41;;;;;;;8.23;5.95;;;;;;;29.24;54.94;100141.03;5055205;28;20384;-84
2021/07/04 08:41:46;;;;;;;8.82;5.85;;;;;;;29.52;54.10;100135.25;5055172;28;20048;-81
2021/07/04 08:44:54;;;;;;;7.72;6.05;;;;;;;29.14;55.32;100140.06;5054883;28;20507;-84
2021/07/04 08:47:59;;;;;;;7.05;5.63;;;;;;;28.92;56.05;100135.44;5055033;28;20060;-85
2021/07/04 08:51:05;;;;;;;9.13;6.47;;;;;;;28.80;56.37;100131.97;5054891;28;20067;-80
2021/07/04 08:54:10;;;;;;;9.73;5.50;;;;;;;28.53;57.09;100130.22;5053855;28;20048;-83
2021/07/04 08:57:17;;;;;;;10.00;6.07;;;;;;;27.93;58.23;100139.31;5054955;28;20052;-84
2021/07/04 09:00:23;;;;;;;9.98;5.63;;;;;;;28.09;58.71;100140.41;5054805;28;20376;-83
2021/07/04 09:03:28;;;;;;;6.50;5.38;;;;;;;28.18;58.40;100142.47;5055141;28;20052;-85
2021/07/04 09:06:50;;;;;;;10.65;6.75;;;;;;;27.85;58.87;100144.44;5054444;28;20047;-84
2021/07/04 09:09:57;;;;;;;9.47;6.53;;;;;;;27.90;59.64;100155.53;5053892;28;20047;-84
2021/07/04 09:13:04;;;;;;;10.43;6.25;;;;;;;27.74;59.53;100149.78;5054424;28;20271;-85
2021/07/04 09:16:19;;;;;;;9.63;7.97;;;;;;;27.66;59.56;100144.69;5054230;28;20072;-85
2021/07/04 09:19:25;;;;;;;15.20;9.05;;;;;;;27.52;60.50;100148.88;5053275;28;20048;-85
2021/07/04 09:22:34;;;;;;;11.10;9.57;;;;;;;27.71;61.10;100157.72;5054424;28;20586;-85
2021/07/04 09:25:39;;;;;;;11.82;10.63;;;;;;;27.77;60.73;100148.44;5054351;28;20159;-83
2021/07/04 09:28:44;;;;;;;11.88;10.68;;;;;;;27.92;60.80;100153.38;5052790;28;20392;-84
2021/07/04 09:31:48;;;;;;;14.93;11.32;;;;;;;27.49;61.77;100152.13;5054289;28;20037;-85
2021/07/04 09:35:05;;;;;;;11.55;10.35;;;;;;;27.66;61.34;100150.19;5054116;28;20037;-86
2021/07/04 09:38:16;;;;;;;13.95;11.25;;;;;;;27.37;61.76;100159.59;5054340;28;20041;-86
2021/07/04 09:41:21;;;;;;;12.57;10.23;;;;;;;27.34;61.86;100160.09;5054138;28;20048;-85
2021/07/04 09:44:25;;;;;;;12.10;10.60;;;;;;;27.41;62.23;100154.44;5054213;28;20053;-84
2021/07/04 09:47:29;;;;;;;13.02;9.98;;;;;;;27.58;61.46;100164.41;5053791;28;20053;-85
2021/07/04 09:50:45;;;;;;;12.85;10.77;;;;;;;27.21;62.17;100165.91;5052662;28;20391;-84
2021/07/04 09:53:57;;;;;;;13.05;10.57;;;;;;;26.94;62.85;100154.66;5053174;28;20048;-84
2021/07/04 09:57:05;;;;;;;11.45;9.98;;;;;;;26.76;63.43;100159.53;5053978;28;20045;-84
2021/07/04 10:00:18;;;;;;;12.63;9.73;;;;;;;26.78;63.55;100165.63;5053681;28;20048;-82
2021/07/04 10:03:23;;;;;;;;;;;;;;;26.61;63.30;100171.03;5054277;28;20384;-85
2021/07/04 10:06:45;;;;;;;9.88;8.75;;;;;;;26.66;63.18;100162.88;5053397;28;19916;-84
2021/07/04 10:09:49;;;;;;;9.57;8.57;;;;;;;26.57;63.39;100166.22;5053734;28;20373;-85
2021/07/04 10:12:54;;;;;;;9.50;8.57;;;;;;;26.42;64.07;100151.06;5053820;28;20416;-80
2021/07/04 10:15:59;;;;;;;9.43;8.38;;;;;;;26.51;63.37;100150.69;5053441;28;20060;-86
2021/07/04 10:19:05;;;;;;;10.95;8.57;;;;;;;26.48;64.04;100144.59;5053807;28;20418;-81
2021/07/04 10:22:10;;;;;;;10.90;8.77;;;;;;;26.36;63.08;100132.78;5052896;28;20048;-84
2021/07/04 10:25:14;;;;;;;10.15;9.00;;;;;;;26.03;64.08;100127.03;5053741;28;20511;-85
2021/07/04 10:28:24;;;;;;;11.05;9.35;;;;;;;26.18;64.13;100123.81;5052837;28;20068;-84
2021/07/04 10:31:32;;;;;;;11.15;10.05;;;;;;;26.08;64.86;100109.81;5052853;28;20052;-85
2021/07/04 10:34:48;;;;;;;13.65;11.90;;;;;;;26.23;64.23;100105.50;5053571;28;20041;-83
2021/07/04 10:38:10;;;;;;;15.13;10.82;;;;;;;26.49;64.01;100107.72;5053025;28;20045;-85
2021/07/04 10:41:31;;;;;;;13.95;9.85;;;;;;;26.51;62.95;100110.25;5056192;28;20472;-84
2021/07/04 10:44:42;;;;;;;11.27;7.95;;;;;;;26.44;62.38;100106.78;5057179;28;20479;-84
2021/07/04 10:47:47;;;;;;;7.05;5.20;;;;;;;26.38;61.09;100111.34;5057295;28;20059;-86
2021/07/04 10:51:09;;;;;;;9.93;7.97;;;;;;;26.51;61.91;100107.50;5055943;28;20500;-84
2021/07/04 10:54:13;;;;;;;12.02;9.52;;;;;;;26.66;61.93;100101.44;5056054;28;20064;-85
2021/07/04 10:57:30;;;;;;;13.25;11.85;;;;;;;26.56;63.30;100115.00;5056349;28;20515;-85
2021/07/04 11:00:46;;;;;;;14.80;11.85;;;;;;;26.41;62.97;100099.03;5056941;28;20045;-83
2021/07/04 11:03:50;;;;;;;12.55;10.88;;;;;;;26.31;63.63;100093.28;5056745;28;20049;-84
2021/07/04 11:06:57;;;;;;;14.80;11.25;;;;;;;26.51;63.44;100098.38;5056218;28;20065;-85
2021/07/04 11:10:01;;;;;;;12.07;9.45;;;;;;;26.82;62.26;100100.69;5057000;28;20053;-85
2021/07/04 11:13:07;;;;;;;14.23;10.25;;;;;;;27.12;61.67;100101.25;5056934;28;20056;-74
2021/07/04 11:16:17;;;;;;;13.73;11.98;;;;;;;27.30;60.85;100101.03;5056510;28;20048;-84
2021/07/04 11:19:21;;;;;;;11.48;10.30;;;;;;;27.47;60.69;100107.41;5056572;28;20041;-85
2021/07/04 11:23:08;;;;;;;12.38;9.60;;;;;;;27.65;60.36;100101.63;5056402;28;20041;-83
2021/07/04 11:26:15;;;;;;;9.88;8.82;;;;;;;27.85;59.58;100095.56;5034324;28;20048;-84
2021/07/04 11:29:20;;;;;;;13.23;10.05;;;;;;;27.67;59.99;100093.97;5034590;28;20148;-85
2021/07/04 11:32:24;;;;;;;11.23;9.52;;;;;;;27.63;59.10;100097.44;5022929;28;20440;-82
2021/07/04 11:35:41;;;;;;;11.57;9.80;;;;;;;27.61;59.29;100100.47;5034461;28;20056;-85
2021/07/04 11:38:59;;;;;;;11.90;10.50;;;;;;;27.59;59.74;100099.88;5034272;28;20052;-85
2021/07/04 11:42:04;;;;;;;12.68;10.68;;;;;;;27.61;60.46;100083.06;5034247;28;20053;-85
2021/07/04 11:45:15;;;;;;;11.27;9.65;;;;;;;27.54;60.56;100072.22;5034167;28;20041;-81
2021/07/04 11:48:22;;;;;;;16.00;10.50;;;;;;;27.47;61.02;100067.97;5034145;28;20136;-85
2021/07/04 11:51:30;;;;;;;12.00;10.55;;;;;;;27.33;61.39;100058.34;5033571;28;20049;-81
2021/07/04 11:54:34;;;;;;;11.43;10.20;;;;;;;27.33;61.03;100064.66;5034101;28;20053;-82
2021/07/04 11:57:42;;;;;;;11.50;9.57;;;;;;;27.33;61.26;100061.09;5034131;28;20041;-84
2021/07/04 12:00:47;;;;;;;10.23;9.23;;;;;;;27.40;60.89;100053.53;5041592;28;20483;-83
2021/07/04 12:03:55;;;;;;;12.90;8.40;;;;;;;27.51;60.92;100038.78;5055703;28;20064;-84
2021/07/04 12:07:11;;;;;;;10.77;9.57;;;;;;;27.56;60.67;100041.63;5055640;28;20060;-83
2021/07/04 12:10:16;;;;;;;11.68;10.10;;;;;;;27.66;61.47;100030.75;5055556;28;20048;-83
2021/07/04 12:13:20;;;;;;;10.60;9.02;;;;;;;27.81;60.31;100011.66;5055528;28;20041;-83
2021/07/04 12:16:25;;;;;;;9.90;7.53;;;;;;;27.81;58.94;100006.16;5055409;28;20056;-84
2021/07/04 12:19:33;;;;;;;10.43;7.28;;;;;;;27.81;58.75;100002.53;5054850;28;20043;-84
2021/07/04 12:22:37;;;;;;;7.78;6.43;;;;;;;27.88;58.86;100012.31;5055266;28;20123;-83
2021/07/04 12:25:42;;;;;;;8.05;6.68;;;;;;;27.82;59.21;100002.31;5055528;28;20048;-84
2021/07/04 12:28:48;;;;;;;9.30;7.28;;;;;;;27.65;59.19;99993.25;5054313;28;20052;-82
2021/07/04 12:32:05;;;;;;;7.80;6.80;;;;;;;27.53;59.15;99998.84;5055332;28;20040;-82
2021/07/04 12:35:20;;;;;;;6.97;5.03;;;;;;;27.59;59.72;99997.00;5055020;28;20060;-83
2021/07/04 12:38:28;;;;;;;7.15;5.72;;;;;;;27.54;59.83;99994.19;5055252;28;20392;-84
2021/07/04 12:41:34;;;;;;;8.35;6.88;;;;;;;27.51;60.16;100000.19;5054470;28;20056;-82
2021/07/04 12:44:38;;;;;;;7.43;5.47;;;;;;;27.59;60.70;100017.16;5054903;28;20052;-84
2021/07/04 12:47:44;;;;;;;9.27;6.22;;;;;;;27.59;61.06;100016.31;5054852;28;20048;-85
2021/07/04 12:51:10;;;;;;;8.13;6.85;;;;;;;27.56;61.57;100025.09;5054984;28;20055;-84
2021/07/04 12:54:32;;;;;;;7.38;6.18;;;;;;;27.59;61.69;100008.88;5054968;28;20499;-81
2021/07/04 12:57:39;;;;;;;16.65;7.65;;;;;;;27.57;62.18;99985.41;5054868;28;20380;-84
2021/07/04 13:00:43;;;;;;;10.18;8.35;;;;;;;27.45;62.15;99952.44;5053788;28;20048;-85
2021/07/04 13:03:57;;;;;;;8.68;7.82;;;;;;;27.13;62.29;99925.72;5053782;28;20056;-84
2021/07/04 13:07:06;;;;;;;8.68;7.38;;;;;;;26.99;63.60;99958.28;5055024;28;20055;-80
2021/07/04 13:10:12;;;;;;;9.15;6.63;;;;;;;27.08;64.60;99973.31;5054375;28;20044;-84
2021/07/04 13:13:16;;;;;;;7.38;6.25;;;;;;;27.13;64.21;99960.44;5054640;28;20048;-85
2021/07/04 13:16:20;;;;;;;7.88;6.30;;;;;;;27.07;64.64;99968.88;5054402;28;20052;-84
2021/07/04 13:19:28;;;;;;;10.32;6.80;;;;;;;26.92;64.59;99960.38;5054651;28;20059;-84
2021/07/04 13:22:35;;;;;;;8.20;5.93;;;;;;;26.89;64.08;99956.19;5054289;28;20044;-82
2021/07/04 13:25:45;;;;;;;7.28;6.57;;;;;;;26.81;64.71;99947.53;5053679;28;20056;-83
2021/07/04 13:28:50;;;;;;;7.88;5.55;;;;;;;26.91;64.51;99939.44;5054431;28;20048;-77
2021/07/04 13:32:18;;;;;;;7.80;6.97;;;;;;;26.93;63.44;99937.25;5054238;28;20052;-84
2021/07/04 13:35:44;;;;;;;8.80;7.90;;;;;;;26.90;63.11;99921.22;5053983;28;20043;-77
2021/07/04 13:39:04;;;;;;;10.63;8.68;;;;;;;26.86;64.67;99917.31;5054060;28;20388;-84
2021/07/04 13:42:08;;;;;;;8.48;7.68;;;;;;;26.87;64.61;99911.53;5053552;28;20052;-84
2021/07/04 13:46:00;;;;;;;8.10;7.28;;;;;;;27.05;64.80;99913.19;5054028;28;20048;-86
2021/07/04 13:49:05;;;;;;;8.52;7.70;;;;;;;26.97;64.66;99903.44;5032215;28;20154;-78
2021/07/04 13:52:13;;;;;;;8.57;7.68;;;;;;;26.99;64.88;99908.69;5032006;28;20144;-77
2021/07/04 13:55:18;;;;;;;10.27;9.27;;;;;;;27.02;65.60;99902.69;5031956;28;20156;-84
2021/07/04 13:58:23;;;;;;;8.23;7.43;;;;;;;27.00;66.02;99905.69;5021004;28;20064;-78
2021/07/04 14:01:26;;;;;;;9.00;7.72;;;;;;;27.04;66.66;99895.81;5031789;28;20064;-77
2021/07/04 14:04:32;;;;;;;9.65;7.55;;;;;;;26.95;66.04;99894.59;5020452;28;20048;-79
2021/07/04 14:07:36;;;;;;;10.90;8.10;;;;;;;26.94;67.02;99895.66;5031649;28;20064;-77
2021/07/04 14:10:42;;;;;;;8.32;7.50;;;;;;;26.87;66.50;99895.03;5031920;28;20061;-84
2021/07/04 14:13:47;;;;;;;9.25;7.35;;;;;;;26.84;66.86;99905.69;5020300;28;20145;-77
2021/07/04 14:16:53;;;;;;;9.30;8.25;;;;;;;26.71;67.20;99889.50;5035421;28;20072;-85
2021/07/04 14:20:01;;;;;;;10.30;9.20;;;;;;;26.57;67.51;99866.09;5035982;28;20048;-78
2021/07/04 14:23:05;;;;;;;12.00;10.80;;;;;;;26.32;68.09;99861.84;5037574;28;20064;-87
2021/07/04 14:26:10;;;;;;;10.18;9.18;;;;;;;26.17;69.54;99882.78;5057646;28;20052;-84
2021/07/04 14:29:14;;;;;;;11.23;9.55;;;;;;;26.19;70.12;99883.38;5057656;28;20056;-85
2021/07/04 14:32:19;;;;;;;10.10;9.10;;;;;;;26.25;69.08;99880.44;5056703;28;20044;-84